createdAt,value
2023-06-09T00:02:17.117Z,100.00
2023-06-09T00:07:18.732Z,100.00
2023-06-09T00:12:20.315Z,100.00
2023-06-09T00:17:25.446Z,100.00
2023-06-09T00:22:27.914Z,100.00
2023-06-09T00:27:30.543Z,100.00
2023-06-09T00:32:32.255Z,100.00
2023-06-09T00:37:33.936Z,100.00
2023-06-09T00:42:35.500Z,100.00
2023-06-09T00:47:37.237Z,100.00
2023-06-09T00:52:38.807Z,100.00
2023-06-09T00:57:40.864Z,100.00
2023-06-09T01:02:42.478Z,100.00
2023-06-09T01:07:51.564Z,100.00
2023-06-09T01:13:25.041Z,100.00
2023-06-09T01:18:31.940Z,100.00
2023-06-09T01:23:52.670Z,100.00
2023-06-09T01:28:56.311Z,100.00
2023-06-09T01:33:58.203Z,100.00
2023-06-09T01:38:59.856Z,100.00
2023-06-09T01:44:01.405Z,100.00
2023-06-09T01:49:02.876Z,100.00
2023-06-09T01:54:12.901Z,100.00
2023-06-09T01:59:21.801Z,100.00
2023-06-09T02:04:26.543Z,100.00
2023-06-09T02:09:28.186Z,100.00
2023-06-09T02:14:34.194Z,100.00
2023-06-09T02:19:39.830Z,100.00
2023-06-09T02:24:41.407Z,100.00
2023-06-09T02:29:43.031Z,100.00
2023-06-09T02:34:46.297Z,100.00
2023-06-09T02:39:47.880Z,100.00
2023-06-09T02:44:49.888Z,100.00
2023-06-09T02:49:51.567Z,100.00
2023-06-09T02:54:53.099Z,100.00
2023-06-09T02:59:55.130Z,100.00
2023-06-09T03:04:57.810Z,100.00
2023-06-09T03:10:01.068Z,100.00
2023-06-09T03:15:02.650Z,100.00
2023-06-09T03:20:07.349Z,100.00
2023-06-09T03:25:10.214Z,100.00
2023-06-09T03:30:12.548Z,100.00
2023-06-09T03:35:14.269Z,100.00
2023-06-09T03:40:16.439Z,100.00
2023-06-09T03:45:18.080Z,100.00
2023-06-09T03:50:19.821Z,100.00
2023-06-09T03:55:23.611Z,100.00
2023-06-09T04:00:25.284Z,100.00
2023-06-09T04:05:26.965Z,100.00
2023-06-09T04:10:28.524Z,100.00
2023-06-09T04:15:30.094Z,100.00
2023-06-09T04:20:31.624Z,100.00
2023-06-09T04:25:35.876Z,100.00
2023-06-09T04:30:39.272Z,100.00
2023-06-09T04:35:42.295Z,100.00
2023-06-09T04:40:46.626Z,100.00
2023-06-09T04:45:48.218Z,100.00
2023-06-09T04:50:50.725Z,100.00
2023-06-09T04:55:53.313Z,100.00
2023-06-09T05:00:54.883Z,100.00
2023-06-09T05:05:56.440Z,100.00
2023-06-09T05:10:59.067Z,100.00
2023-06-09T05:16:00.751Z,100.00
2023-06-09T05:21:02.343Z,100.00
2023-06-09T05:26:03.945Z,100.00
2023-06-09T05:31:05.495Z,100.00
2023-06-09T05:36:07.790Z,100.00
2023-06-09T05:41:09.332Z,100.00
2023-06-09T05:46:10.909Z,100.00
2023-06-09T05:51:13.728Z,100.00
2023-06-09T05:56:18.118Z,100.00
2023-06-09T06:01:21.015Z,100.00
2023-06-09T06:06:22.690Z,100.00
2023-06-09T06:11:24.448Z,100.00
2023-06-09T06:16:26.013Z,100.00
2023-06-09T06:21:27.520Z,100.00
2023-06-09T06:26:30.175Z,100.00
2023-06-09T06:31:32.283Z,100.00
2023-06-09T06:36:34.175Z,100.00
2023-06-09T06:41:35.687Z,100.00
2023-06-09T06:46:37.309Z,100.00
2023-06-09T06:51:41.300Z,100.00
2023-06-09T06:56:42.861Z,100.00
2023-06-09T07:01:44.418Z,100.00
2023-06-09T07:06:46.960Z,100.00
2023-06-09T07:11:48.549Z,100.00
2023-06-09T07:16:50.107Z,100.00
2023-06-09T07:21:51.622Z,100.00
2023-06-09T07:26:54.422Z,100.00
2023-06-09T07:31:56.120Z,100.00
2023-06-09T07:36:58.122Z,100.00
2023-06-09T07:41:59.680Z,100.00
2023-06-09T07:47:01.184Z,100.00
2023-06-09T07:52:10.034Z,100.00
2023-06-09T07:57:22.730Z,100.00
2023-06-09T08:02:24.821Z,100.00
2023-06-09T08:07:27.409Z,100.00
2023-06-09T08:12:28.931Z,100.00
2023-06-09T08:17:30.584Z,100.00
2023-06-09T08:22:32.189Z,100.00
2023-06-09T08:27:34.044Z,100.00
2023-06-09T08:32:36.616Z,99.40
2023-06-09T08:37:38.547Z,99.99
2023-06-09T08:42:40.878Z,99.49
2023-06-09T08:47:47.807Z,99.04
2023-06-09T08:52:49.959Z,96.58
2023-06-09T08:57:52.441Z,96.50
2023-06-09T09:02:54.216Z,95.98
2023-06-09T09:07:55.754Z,96.12
2023-06-09T09:12:57.438Z,93.15
2023-06-09T09:17:58.997Z,92.35
2023-06-09T09:23:00.616Z,91.55
2023-06-09T09:28:07.507Z,89.93
2023-06-09T09:33:10.094Z,88.56
2023-06-09T09:38:21.077Z,88.81
2023-06-09T09:43:25.930Z,88.38
2023-06-09T09:48:27.676Z,87.41
2023-06-09T09:53:29.247Z,85.42
2023-06-09T09:58:35.829Z,85.61
2023-06-09T10:03:45.438Z,82.42
2023-06-09T10:08:47.922Z,79.36
2023-06-09T10:13:49.620Z,72.13
2023-06-09T10:18:51.985Z,63.38
2023-06-09T10:23:54.249Z,53.27
2023-06-09T10:28:56.013Z,52.50
2023-06-09T10:33:57.984Z,49.40
2023-06-09T10:39:15.197Z,48.96
2023-06-09T10:44:35.268Z,56.82
2023-06-09T10:49:40.092Z,61.27
2023-06-09T10:54:41.781Z,64.50
2023-06-09T10:59:49.066Z,65.76
2023-06-09T11:04:53.391Z,66.87
2023-06-09T11:09:57.892Z,65.90
2023-06-09T11:15:00.460Z,65.98
2023-06-09T11:20:13.317Z,66.50
2023-06-09T11:25:18.165Z,65.25
2023-06-09T11:30:20.290Z,65.73
2023-06-09T11:35:31.056Z,64.15
2023-06-09T11:40:38.565Z,63.92
2023-06-09T11:45:40.149Z,63.67
2023-06-09T11:50:48.005Z,63.36
2023-06-09T11:55:59.665Z,62.89
2023-06-09T12:01:01.180Z,61.80
2023-06-09T12:06:02.949Z,62.73
2023-06-09T12:11:04.676Z,61.60
2023-06-09T12:16:06.296Z,60.94
2023-06-09T12:21:10.438Z,60.54
2023-06-09T12:26:14.360Z,60.87
2023-06-09T12:31:16.055Z,60.10
2023-06-09T12:36:17.914Z,59.68
2023-06-09T12:41:19.740Z,58.67
2023-06-09T12:46:27.258Z,58.03
2023-06-09T12:51:29.702Z,58.63
2023-06-09T12:56:32.054Z,57.23
2023-06-09T13:01:33.725Z,57.50
2023-06-09T13:06:35.879Z,56.29
2023-06-09T13:11:37.810Z,55.96
2023-06-09T13:16:39.407Z,55.10
2023-06-09T13:21:44.958Z,54.45
2023-06-09T13:26:49.179Z,54.50
2023-06-09T13:31:50.957Z,54.38
2023-06-09T13:36:53.793Z,53.53
2023-06-09T13:41:55.309Z,52.73
2023-06-09T13:46:56.846Z,53.34
2023-06-09T13:51:58.356Z,52.06
2023-06-09T13:56:59.843Z,51.03
2023-06-09T14:02:01.506Z,51.51
2023-06-09T14:07:03.748Z,51.22
2023-06-09T14:12:10.039Z,51.72
2023-06-09T14:17:12.119Z,51.15
2023-06-09T14:22:13.698Z,49.74
2023-06-09T14:27:15.370Z,49.42
2023-06-09T14:32:16.916Z,50.30
2023-06-09T14:37:18.456Z,49.41
2023-06-09T14:42:20.062Z,48.69
2023-06-09T14:47:21.651Z,48.70
2023-06-09T14:52:23.210Z,48.71
2023-06-09T14:57:24.766Z,48.04
2023-06-09T15:02:26.488Z,48.59
2023-06-09T15:07:28.017Z,47.08
2023-06-09T15:12:29.612Z,47.23
2023-06-09T15:17:35.471Z,45.87
2023-06-09T15:22:39.332Z,45.86
2023-06-09T15:27:45.592Z,45.64
2023-06-09T15:32:49.439Z,46.09
2023-06-09T15:37:51.062Z,46.35
2023-06-09T15:42:52.603Z,48.52
2023-06-09T15:47:54.554Z,50.00
2023-06-09T15:52:56.243Z,51.10
2023-06-09T15:57:58.244Z,51.67
2023-06-09T16:03:05.116Z,51.97
2023-06-09T16:08:09.294Z,52.93
2023-06-09T16:13:11.105Z,54.54
2023-06-09T16:18:14.243Z,55.10
2023-06-09T16:23:16.023Z,55.71
2023-06-09T16:28:17.601Z,59.13
2023-06-09T16:33:19.246Z,61.46
2023-06-09T16:38:20.816Z,63.46
2023-06-09T16:43:22.382Z,65.22
2023-06-09T16:48:23.896Z,66.98
2023-06-09T16:53:25.472Z,67.51
2023-06-09T16:58:27.137Z,69.13
2023-06-09T17:03:28.786Z,70.05
2023-06-09T17:08:30.419Z,70.98
2023-06-09T17:13:32.041Z,71.52
2023-06-09T17:18:33.603Z,71.58
2023-06-09T17:23:35.213Z,71.77
2023-06-09T17:28:36.858Z,72.37
2023-06-09T17:33:38.416Z,71.97
2023-06-09T17:38:39.984Z,72.94
2023-06-09T17:43:41.541Z,73.51
2023-06-09T17:48:44.918Z,72.45
2023-06-09T17:53:46.547Z,72.75
2023-06-09T17:58:48.124Z,73.05
2023-06-09T18:03:49.672Z,73.37
2023-06-09T18:08:51.504Z,73.68
2023-06-09T18:13:53.402Z,74.21
2023-06-09T18:18:55.011Z,74.65
2023-06-09T18:23:56.943Z,74.84
2023-06-09T18:28:58.743Z,75.10
2023-06-09T18:34:00.556Z,75.66
2023-06-09T18:39:02.221Z,76.00
2023-06-09T18:44:15.561Z,76.95
2023-06-09T18:49:17.175Z,77.79
2023-06-09T18:54:18.763Z,78.18
2023-06-09T18:59:20.739Z,78.28
2023-06-09T19:04:22.767Z,78.00
2023-06-09T19:09:24.455Z,78.10
2023-06-09T19:14:26.024Z,77.65
2023-06-09T19:19:27.537Z,77.82
2023-06-09T19:24:29.100Z,77.70
2023-06-09T19:29:30.995Z,77.30
2023-06-09T19:34:32.678Z,77.66
2023-06-09T19:39:34.312Z,78.35
2023-06-09T19:44:35.853Z,78.56
2023-06-09T19:49:37.422Z,79.44
2023-06-09T19:54:39.627Z,80.19
2023-06-09T19:59:41.248Z,80.98
2023-06-09T20:04:42.978Z,82.04
2023-06-09T20:09:44.917Z,82.55
2023-06-09T20:14:47.455Z,83.23
2023-06-09T20:19:49.269Z,84.15
2023-06-09T20:24:50.960Z,85.08
2023-06-09T20:29:52.634Z,86.15
2023-06-09T20:34:54.177Z,87.14
2023-06-09T20:39:56.068Z,88.07
2023-06-09T20:44:57.600Z,89.48
2023-06-09T20:49:59.209Z,90.16
2023-06-09T20:55:01.199Z,90.39
2023-06-09T21:00:03.512Z,90.78
2023-06-09T21:05:06.378Z,91.36
2023-06-09T21:10:08.518Z,91.79
2023-06-09T21:15:10.794Z,91.65
2023-06-09T21:20:13.449Z,91.36
2023-06-09T21:25:16.482Z,91.51
2023-06-09T21:30:18.066Z,91.58
2023-06-09T21:35:19.645Z,92.11
2023-06-09T21:40:21.244Z,92.91
2023-06-09T21:45:24.162Z,93.05
2023-06-09T21:50:25.757Z,93.38
2023-06-09T21:55:27.592Z,95.31
2023-06-09T22:00:30.426Z,96.23
2023-06-09T22:05:31.970Z,96.58
2023-06-09T22:10:35.497Z,96.35
2023-06-09T22:15:37.023Z,95.47
2023-06-09T22:20:38.799Z,94.31
2023-06-09T22:25:40.411Z,92.69
2023-06-09T22:30:42.289Z,89.97
2023-06-09T22:35:44.015Z,88.84
2023-06-09T22:40:46.212Z,87.38
2023-06-09T22:45:47.843Z,85.68
2023-06-09T22:50:49.412Z,85.24
2023-06-09T22:55:51.715Z,84.76
2023-06-09T23:00:53.258Z,84.88
2023-06-09T23:05:56.988Z,84.65
2023-06-09T23:10:58.732Z,82.82
2023-06-09T23:16:00.393Z,82.49
2023-06-09T23:21:03.143Z,81.63
2023-06-09T23:26:05.263Z,80.71
2023-06-09T23:31:07.382Z,80.15
2023-06-09T23:36:08.934Z,79.87
2023-06-09T23:41:10.430Z,79.90
2023-06-09T23:46:12.014Z,79.62
2023-06-09T23:51:13.647Z,79.90
2023-06-09T23:56:15.190Z,79.99
